Skandia, Michigan
Current Conditions -  °F | °C
As of 8:55 PM on Sunday 23 Nov 2014 (Local Time) from KSAW Reporting Station
Drizzle Drizzle  
Wind Chill:   Ceiling: 200
Heat Index:   Visibility: 0.5mi
Dew Point:   Wind: 7mph
Humidity: 93%   Direction: 140°SE
Pressure: 29.36"   Gusts: NA
Location:  46.38°N, 87.24°W
Report Text: KSAW 240155Z 14006KT 1/2SM DZ FG OVC002 04/03 A2936
Loading
Personal Weather Stations






























Interactive Weather Map New forecast layout! Learn more

10-Day Weather Forecast

Advertisements
Track Severe Weather on mobile